sensor_id;sensor_type;location;lat;lon;timestamp;temperature;humidity
1405;DHT22;697;51.114;6.542;2022-10-16T00:00:32;16.20;99.40
1405;DHT22;697;51.114;6.542;2022-10-16T00:03:00;16.20;99.40
1405;DHT22;697;51.114;6.542;2022-10-16T00:05:27;16.20;99.40
1405;DHT22;697;51.114;6.542;2022-10-16T00:07:53;16.20;99.30
1405;DHT22;697;51.114;6.542;2022-10-16T00:10:20;16.20;99.30
1405;DHT22;697;51.114;6.542;2022-10-16T00:12:47;16.20;99.20
1405;DHT22;697;51.114;6.542;2022-10-16T00:15:14;16.20;99.20
1405;DHT22;697;51.114;6.542;2022-10-16T00:17:41;16.20;99.20
1405;DHT22;697;51.114;6.542;2022-10-16T00:20:09;16.10;99.20
1405;DHT22;697;51.114;6.542;2022-10-16T00:22:36;16.20;99.20
1405;DHT22;697;51.114;6.542;2022-10-16T00:25:03;16.10;99.10
1405;DHT22;697;51.114;6.542;2022-10-16T00:27:30;16.10;99.10
1405;DHT22;697;51.114;6.542;2022-10-16T00:29:57;16.10;99.00
1405;DHT22;697;51.114;6.542;2022-10-16T00:32:23;16.10;99.10
1405;DHT22;697;51.114;6.542;2022-10-16T00:34:50;16.10;99.10
1405;DHT22;697;51.114;6.542;2022-10-16T00:37:20;16.10;99.00
1405;DHT22;697;51.114;6.542;2022-10-16T00:39:47;16.10;99.00
1405;DHT22;697;51.114;6.542;2022-10-16T00:42:15;16.00;99.10
1405;DHT22;697;51.114;6.542;2022-10-16T00:44:47;16.00;99.10
1405;DHT22;697;51.114;6.542;2022-10-16T00:47:19;16.00;99.20
1405;DHT22;697;51.114;6.542;2022-10-16T00:49:49;16.00;99.10
1405;DHT22;697;51.114;6.542;2022-10-16T00:52:16;16.00;99.10
1405;DHT22;697;51.114;6.542;2022-10-16T00:54:46;16.00;99.00
1405;DHT22;697;51.114;6.542;2022-10-16T00:57:13;15.90;99.00
1405;DHT22;697;51.114;6.542;2022-10-16T00:59:41;15.90;99.00
1405;DHT22;697;51.114;6.542;2022-10-16T01:02:13;16.00;99.10
1405;DHT22;697;51.114;6.542;2022-10-16T01:04:43;15.90;99.10
1405;DHT22;697;51.114;6.542;2022-10-16T01:07:14;15.80;99.10
1405;DHT22;697;51.114;6.542;2022-10-16T01:09:57;15.90;99.10
1405;DHT22;697;51.114;6.542;2022-10-16T01:12:33;15.90;99.20
1405;DHT22;697;51.114;6.542;2022-10-16T01:15:08;15.80;99.20
1405;DHT22;697;51.114;6.542;2022-10-16T01:17:41;15.80;99.20
1405;DHT22;697;51.114;6.542;2022-10-16T01:20:14;15.80;99.20
1405;DHT22;697;51.114;6.542;2022-10-16T01:22:53;15.80;99.10
1405;DHT22;697;51.114;6.542;2022-10-16T01:25:30;15.80;99.10
1405;DHT22;697;51.114;6.542;2022-10-16T01:28:01;15.80;99.10
1405;DHT22;697;51.114;6.542;2022-10-16T01:30:31;15.80;99.10
1405;DHT22;697;51.114;6.542;2022-10-16T01:33:02;15.80;99.10
1405;DHT22;697;51.114;6.542;2022-10-16T01:35:33;15.80;99.20
1405;DHT22;697;51.114;6.542;2022-10-16T01:38:04;15.80;99.20
1405;DHT22;697;51.114;6.542;2022-10-16T01:40:34;15.80;99.20
1405;DHT22;697;51.114;6.542;2022-10-16T01:43:06;15.80;99.20
1405;DHT22;697;51.114;6.542;2022-10-16T01:45:35;15.80;99.10
1405;DHT22;697;51.114;6.542;2022-10-16T01:48:04;15.80;99.10
1405;DHT22;697;51.114;6.542;2022-10-16T01:50:37;15.80;99.00
1405;DHT22;697;51.114;6.542;2022-10-16T01:53:06;15.80;98.90
1405;DHT22;697;51.114;6.542;2022-10-16T01:55:37;15.80;99.00
1405;DHT22;697;51.114;6.542;2022-10-16T01:58:09;15.80;98.80
1405;DHT22;697;51.114;6.542;2022-10-16T02:00:37;15.80;98.80
1405;DHT22;697;51.114;6.542;2022-10-16T02:03:04;15.80;98.90
1405;DHT22;697;51.114;6.542;2022-10-16T02:05:36;15.80;98.80
1405;DHT22;697;51.114;6.542;2022-10-16T02:08:04;15.80;98.50
1405;DHT22;697;51.114;6.542;2022-10-16T02:10:31;15.80;98.50
1405;DHT22;697;51.114;6.542;2022-10-16T02:13:03;15.80;98.30
1405;DHT22;697;51.114;6.542;2022-10-16T02:15:31;15.80;98.20
1405;DHT22;697;51.114;6.542;2022-10-16T02:17:58;15.80;98.30
1405;DHT22;697;51.114;6.542;2022-10-16T02:20:28;15.70;98.00
1405;DHT22;697;51.114;6.542;2022-10-16T02:22:59;15.80;97.80
1405;DHT22;697;51.114;6.542;2022-10-16T02:25:30;15.80;97.70
1405;DHT22;697;51.114;6.542;2022-10-16T02:28:01;15.80;97.50
1405;DHT22;697;51.114;6.542;2022-10-16T02:30:33;15.70;97.30
1405;DHT22;697;51.114;6.542;2022-10-16T02:33:03;15.80;97.30
1405;DHT22;697;51.114;6.542;2022-10-16T02:35:31;15.80;97.20
1405;DHT22;697;51.114;6.542;2022-10-16T02:37:59;15.80;97.20
1405;DHT22;697;51.114;6.542;2022-10-16T02:40:26;15.80;96.90
1405;DHT22;697;51.114;6.542;2022-10-16T02:42:54;15.80;96.70
1405;DHT22;697;51.114;6.542;2022-10-16T02:45:22;15.80;96.70
1405;DHT22;697;51.114;6.542;2022-10-16T02:47:50;15.90;96.60
1405;DHT22;697;51.114;6.542;2022-10-16T02:50:17;15.80;96.40
1405;DHT22;697;51.114;6.542;2022-10-16T02:52:44;15.90;96.30
1405;DHT22;697;51.114;6.542;2022-10-16T02:55:10;15.80;96.20
1405;DHT22;697;51.114;6.542;2022-10-16T02:57:37;15.80;96.10
1405;DHT22;697;51.114;6.542;2022-10-16T03:00:06;15.80;96.20
1405;DHT22;697;51.114;6.542;2022-10-16T03:02:33;15.80;96.10
1405;DHT22;697;51.114;6.542;2022-10-16T03:05:01;15.80;96.60
1405;DHT22;697;51.114;6.542;2022-10-16T03:07:28;15.80;96.30
1405;DHT22;697;51.114;6.542;2022-10-16T03:09:55;15.80;96.10
1405;DHT22;697;51.114;6.542;2022-10-16T03:12:21;15.80;96.10
1405;DHT22;697;51.114;6.542;2022-10-16T03:14:48;15.80;96.10
1405;DHT22;697;51.114;6.542;2022-10-16T03:17:15;15.80;96.10
1405;DHT22;697;51.114;6.542;2022-10-16T03:19:42;15.80;96.30
1405;DHT22;697;51.114;6.542;2022-10-16T03:22:11;15.80;96.20
1405;DHT22;697;51.114;6.542;2022-10-16T03:24:37;15.80;96.40
1405;DHT22;697;51.114;6.542;2022-10-16T03:27:04;15.70;96.50
1405;DHT22;697;51.114;6.542;2022-10-16T03:29:31;15.70;96.60
1405;DHT22;697;51.114;6.542;2022-10-16T03:31:58;15.70;96.70
1405;DHT22;697;51.114;6.542;2022-10-16T03:34:25;15.70;96.80
1405;DHT22;697;51.114;6.542;2022-10-16T03:36:52;15.70;96.80
1405;DHT22;697;51.114;6.542;2022-10-16T03:39:20;15.70;97.00
1405;DHT22;697;51.114;6.542;2022-10-16T03:41:47;15.70;97.00
1405;DHT22;697;51.114;6.542;2022-10-16T03:44:13;15.70;97.00
1405;DHT22;697;51.114;6.542;2022-10-16T03:46:40;15.70;97.00
1405;DHT22;697;51.114;6.542;2022-10-16T03:49:07;15.60;97.00
1405;DHT22;697;51.114;6.542;2022-10-16T03:51:34;15.60;97.10
1405;DHT22;697;51.114;6.542;2022-10-16T03:54:01;15.60;97.20
1405;DHT22;697;51.114;6.542;2022-10-16T03:56:29;15.60;97.20
1405;DHT22;697;51.114;6.542;2022-10-16T03:58:56;15.60;97.20
1405;DHT22;697;51.114;6.542;2022-10-16T04:01:22;15.60;97.30
1405;DHT22;697;51.114;6.542;2022-10-16T04:03:49;15.60;97.30
1405;DHT22;697;51.114;6.542;2022-10-16T04:06:16;15.50;97.30
1405;DHT22;697;51.114;6.542;2022-10-16T04:08:43;15.50;97.80
1405;DHT22;697;51.114;6.542;2022-10-16T04:11:10;15.50;97.50
1405;DHT22;697;51.114;6.542;2022-10-16T04:13:38;15.50;97.70
1405;DHT22;697;51.114;6.542;2022-10-16T04:16:05;15.50;97.80
1405;DHT22;697;51.114;6.542;2022-10-16T04:18:32;15.50;97.80
1405;DHT22;697;51.114;6.542;2022-10-16T04:21:02;15.50;97.90
1405;DHT22;697;51.114;6.542;2022-10-16T04:23:29;15.50;98.00
1405;DHT22;697;51.114;6.542;2022-10-16T04:25:56;15.50;98.00
1405;DHT22;697;51.114;6.542;2022-10-16T04:28:22;15.50;98.00
1405;DHT22;697;51.114;6.542;2022-10-16T04:30:50;15.50;98.10
1405;DHT22;697;51.114;6.542;2022-10-16T04:33:17;15.40;98.10
1405;DHT22;697;51.114;6.542;2022-10-16T04:35:44;15.40;98.10
1405;DHT22;697;51.114;6.542;2022-10-16T04:38:11;15.40;98.20
1405;DHT22;697;51.114;6.542;2022-10-16T04:40:38;15.40;98.20
1405;DHT22;697;51.114;6.542;2022-10-16T04:43:05;15.40;98.40
1405;DHT22;697;51.114;6.542;2022-10-16T04:45:32;15.40;98.30
1405;DHT22;697;51.114;6.542;2022-10-16T04:48:01;15.40;98.30
1405;DHT22;697;51.114;6.542;2022-10-16T04:50:27;15.40;98.40
1405;DHT22;697;51.114;6.542;2022-10-16T04:52:54;15.40;98.30
1405;DHT22;697;51.114;6.542;2022-10-16T04:55:21;15.50;98.50
1405;DHT22;697;51.114;6.542;2022-10-16T04:57:47;15.50;98.40
1405;DHT22;697;51.114;6.542;2022-10-16T05:00:15;15.40;98.40
1405;DHT22;697;51.114;6.542;2022-10-16T05:02:42;15.40;98.40
1405;DHT22;697;51.114;6.542;2022-10-16T05:05:10;15.40;98.50
1405;DHT22;697;51.114;6.542;2022-10-16T05:07:37;15.40;98.60
1405;DHT22;697;51.114;6.542;2022-10-16T05:10:04;15.40;98.60
1405;DHT22;697;51.114;6.542;2022-10-16T05:12:31;15.30;98.50
1405;DHT22;697;51.114;6.542;2022-10-16T05:14:58;15.30;98.50
1405;DHT22;697;51.114;6.542;2022-10-16T05:17:25;15.30;98.60
1405;DHT22;697;51.114;6.542;2022-10-16T05:19:52;15.40;98.60
1405;DHT22;697;51.114;6.542;2022-10-16T05:22:20;15.40;98.60
1405;DHT22;697;51.114;6.542;2022-10-16T05:24:47;15.40;98.60
1405;DHT22;697;51.114;6.542;2022-10-16T05:27:13;15.40;98.60
1405;DHT22;697;51.114;6.542;2022-10-16T05:29:44;15.40;98.70
1405;DHT22;697;51.114;6.542;2022-10-16T05:32:12;15.30;98.70
1405;DHT22;697;51.114;6.542;2022-10-16T05:34:39;15.30;98.80
1405;DHT22;697;51.114;6.542;2022-10-16T05:37:05;15.30;98.80
1405;DHT22;697;51.114;6.542;2022-10-16T05:39:33;15.30;98.90
1405;DHT22;697;51.114;6.542;2022-10-16T05:42:02;15.30;99.00
1405;DHT22;697;51.114;6.542;2022-10-16T05:44:29;15.30;99.20
1405;DHT22;697;51.114;6.542;2022-10-16T05:46:55;15.30;99.20
1405;DHT22;697;51.114;6.542;2022-10-16T05:49:22;15.30;99.30
1405;DHT22;697;51.114;6.542;2022-10-16T05:51:49;15.30;99.20
1405;DHT22;697;51.114;6.542;2022-10-16T05:54:16;15.30;99.30
1405;DHT22;697;51.114;6.542;2022-10-16T05:56:44;15.30;99.20
1405;DHT22;697;51.114;6.542;2022-10-16T05:59:11;15.30;99.30
1405;DHT22;697;51.114;6.542;2022-10-16T06:01:37;15.30;99.20
1405;DHT22;697;51.114;6.542;2022-10-16T06:04:04;15.40;99.20
1405;DHT22;697;51.114;6.542;2022-10-16T06:06:31;15.30;99.10
1405;DHT22;697;51.114;6.542;2022-10-16T06:08:57;15.30;99.30
1405;DHT22;697;51.114;6.542;2022-10-16T06:11:27;15.30;99.30
1405;DHT22;697;51.114;6.542;2022-10-16T06:13:57;15.30;99.30
1405;DHT22;697;51.114;6.542;2022-10-16T06:16:26;15.30;99.30
1405;DHT22;697;51.114;6.542;2022-10-16T06:18:54;15.30;99.20
1405;DHT22;697;51.114;6.542;2022-10-16T06:21:22;15.20;99.30
1405;DHT22;697;51.114;6.542;2022-10-16T06:23:50;15.30;99.50
1405;DHT22;697;51.114;6.542;2022-10-16T06:26:19;15.30;99.50
1405;DHT22;697;51.114;6.542;2022-10-16T06:28:46;15.40;99.40
1405;DHT22;697;51.114;6.542;2022-10-16T06:31:15;15.40;99.20
1405;DHT22;697;51.114;6.542;2022-10-16T06:33:42;15.40;99.20
1405;DHT22;697;51.114;6.542;2022-10-16T06:36:12;15.40;99.30
1405;DHT22;697;51.114;6.542;2022-10-16T06:38:40;15.40;99.30
1405;DHT22;697;51.114;6.542;2022-10-16T06:41:08;15.40;99.30
1405;DHT22;697;51.114;6.542;2022-10-16T06:43:36;15.40;99.40
1405;DHT22;697;51.114;6.542;2022-10-16T06:46:04;15.50;99.40
1405;DHT22;697;51.114;6.542;2022-10-16T06:48:32;15.60;99.20
1405;DHT22;697;51.114;6.542;2022-10-16T06:51:00;15.70;99.10
1405;DHT22;697;51.114;6.542;2022-10-16T06:53:29;15.70;98.80
1405;DHT22;697;51.114;6.542;2022-10-16T06:55:56;15.70;98.50
1405;DHT22;697;51.114;6.542;2022-10-16T06:58:23;15.80;98.50
1405;DHT22;697;51.114;6.542;2022-10-16T07:00:55;15.70;98.50
1405;DHT22;697;51.114;6.542;2022-10-16T07:03:22;15.70;98.50
1405;DHT22;697;51.114;6.542;2022-10-16T07:05:50;15.70;98.40
1405;DHT22;697;51.114;6.542;2022-10-16T07:08:17;15.70;98.40
1405;DHT22;697;51.114;6.542;2022-10-16T07:10:44;15.70;98.50
1405;DHT22;697;51.114;6.542;2022-10-16T07:13:11;15.70;98.50
1405;DHT22;697;51.114;6.542;2022-10-16T07:15:38;15.70;98.50
1405;DHT22;697;51.114;6.542;2022-10-16T07:18:05;15.70;98.50
1405;DHT22;697;51.114;6.542;2022-10-16T07:20:32;15.70;98.50
1405;DHT22;697;51.114;6.542;2022-10-16T07:23:00;15.70;98.60
1405;DHT22;697;51.114;6.542;2022-10-16T07:25:27;15.70;98.60
1405;DHT22;697;51.114;6.542;2022-10-16T07:27:54;15.70;98.60
1405;DHT22;697;51.114;6.542;2022-10-16T07:30:22;15.70;98.70
1405;DHT22;697;51.114;6.542;2022-10-16T07:32:49;15.70;98.70
1405;DHT22;697;51.114;6.542;2022-10-16T07:35:16;15.70;98.50
1405;DHT22;697;51.114;6.542;2022-10-16T07:37:44;15.70;98.50
1405;DHT22;697;51.114;6.542;2022-10-16T07:40:13;15.70;98.50
1405;DHT22;697;51.114;6.542;2022-10-16T07:42:40;15.70;98.50
1405;DHT22;697;51.114;6.542;2022-10-16T07:45:07;15.70;98.50
1405;DHT22;697;51.114;6.542;2022-10-16T07:47:34;15.70;98.70
1405;DHT22;697;51.114;6.542;2022-10-16T07:50:00;15.70;98.90
1405;DHT22;697;51.114;6.542;2022-10-16T07:52:27;15.70;98.90
1405;DHT22;697;51.114;6.542;2022-10-16T07:54:54;15.80;99.10
1405;DHT22;697;51.114;6.542;2022-10-16T07:57:22;15.80;99.30
1405;DHT22;697;51.114;6.542;2022-10-16T07:59:48;15.80;99.20
1405;DHT22;697;51.114;6.542;2022-10-16T08:02:15;15.90;99.40
1405;DHT22;697;51.114;6.542;2022-10-16T08:04:42;16.00;99.40
1405;DHT22;697;51.114;6.542;2022-10-16T08:07:09;16.00;99.40
1405;DHT22;697;51.114;6.542;2022-10-16T08:09:35;16.10;99.30
1405;DHT22;697;51.114;6.542;2022-10-16T08:12:03;16.10;99.10
1405;DHT22;697;51.114;6.542;2022-10-16T08:14:31;16.20;99.20
1405;DHT22;697;51.114;6.542;2022-10-16T08:16:59;16.20;99.30
1405;DHT22;697;51.114;6.542;2022-10-16T08:19:27;16.20;99.10
1405;DHT22;697;51.114;6.542;2022-10-16T08:21:54;16.30;99.10
1405;DHT22;697;51.114;6.542;2022-10-16T08:24:20;16.30;99.00
1405;DHT22;697;51.114;6.542;2022-10-16T08:26:47;16.40;99.00
1405;DHT22;697;51.114;6.542;2022-10-16T08:29:14;16.50;98.90
1405;DHT22;697;51.114;6.542;2022-10-16T08:31:42;16.50;98.70
1405;DHT22;697;51.114;6.542;2022-10-16T08:34:09;16.60;98.60
1405;DHT22;697;51.114;6.542;2022-10-16T08:36:35;16.60;98.60
1405;DHT22;697;51.114;6.542;2022-10-16T08:39:03;16.70;98.40
1405;DHT22;697;51.114;6.542;2022-10-16T08:42:03;16.80;98.10
1405;DHT22;697;51.114;6.542;2022-10-16T08:44:57;16.80;97.60
1405;DHT22;697;51.114;6.542;2022-10-16T08:47:41;16.90;97.40
1405;DHT22;697;51.114;6.542;2022-10-16T08:50:13;16.90;97.00
1405;DHT22;697;51.114;6.542;2022-10-16T09:33:10;18.00;93.50
1405;DHT22;697;51.114;6.542;2022-10-16T09:49:33;18.50;91.10
1405;DHT22;697;51.114;6.542;2022-10-16T09:52:04;18.60;91.70
1405;DHT22;697;51.114;6.542;2022-10-16T09:54:31;18.70;89.20
1405;DHT22;697;51.114;6.542;2022-10-16T09:57:05;18.70;88.70
1405;DHT22;697;51.114;6.542;2022-10-16T09:59:32;18.60;88.90
1405;DHT22;697;51.114;6.542;2022-10-16T10:02:02;18.70;89.80
1405;DHT22;697;51.114;6.542;2022-10-16T10:04:40;18.90;90.10
1405;DHT22;697;51.114;6.542;2022-10-16T10:07:17;19.20;88.40
1405;DHT22;697;51.114;6.542;2022-10-16T10:09:45;19.50;85.70
1405;DHT22;697;51.114;6.542;2022-10-16T10:12:21;19.90;83.10
1405;DHT22;697;51.114;6.542;2022-10-16T10:14:49;20.30;81.40
1405;DHT22;697;51.114;6.542;2022-10-16T10:17:18;20.60;79.20
1405;DHT22;697;51.114;6.542;2022-10-16T10:19:52;20.80;76.80
1405;DHT22;697;51.114;6.542;2022-10-16T10:22:29;20.90;75.40
1405;DHT22;697;51.114;6.542;2022-10-16T10:25:22;20.70;73.70
1405;DHT22;697;51.114;6.542;2022-10-16T10:31:03;20.70;75.30
1405;DHT22;697;51.114;6.542;2022-10-16T10:33:42;21.00;73.80
1405;DHT22;697;51.114;6.542;2022-10-16T10:36:20;21.40;73.10
1405;DHT22;697;51.114;6.542;2022-10-16T10:38:51;21.60;73.40
1405;DHT22;697;51.114;6.542;2022-10-16T10:44:14;22.10;70.90
1405;DHT22;697;51.114;6.542;2022-10-16T10:46:47;22.80;70.40
1405;DHT22;697;51.114;6.542;2022-10-16T10:49:32;23.30;65.70
1405;DHT22;697;51.114;6.542;2022-10-16T10:52:18;23.80;61.70
1405;DHT22;697;51.114;6.542;2022-10-16T10:54:57;24.10;59.40
1405;DHT22;697;51.114;6.542;2022-10-16T10:57:28;24.50;58.70
1405;DHT22;697;51.114;6.542;2022-10-16T11:00:03;25.00;56.80
1405;DHT22;697;51.114;6.542;2022-10-16T11:02:38;25.60;53.60
1405;DHT22;697;51.114;6.542;2022-10-16T11:05:40;26.10;52.30
1405;DHT22;697;51.114;6.542;2022-10-16T11:08:13;26.50;51.10
1405;DHT22;697;51.114;6.542;2022-10-16T11:10:50;27.00;49.80
1405;DHT22;697;51.114;6.542;2022-10-16T11:13:31;27.40;49.00
1405;DHT22;697;51.114;6.542;2022-10-16T11:16:03;27.70;47.50
1405;DHT22;697;51.114;6.542;2022-10-16T11:18:43;28.10;46.90
1405;DHT22;697;51.114;6.542;2022-10-16T11:21:13;28.40;44.20
1405;DHT22;697;51.114;6.542;2022-10-16T11:23:47;28.70;42.80
1405;DHT22;697;51.114;6.542;2022-10-16T11:26:21;29.10;42.80
1405;DHT22;697;51.114;6.542;2022-10-16T11:28:51;29.30;41.80
1405;DHT22;697;51.114;6.542;2022-10-16T11:31:28;29.20;42.30
1405;DHT22;697;51.114;6.542;2022-10-16T11:34:01;29.00;41.70
1405;DHT22;697;51.114;6.542;2022-10-16T11:36:33;28.80;41.60
1405;DHT22;697;51.114;6.542;2022-10-16T11:39:10;28.50;42.40
1405;DHT22;697;51.114;6.542;2022-10-16T11:41:43;28.40;42.40
1405;DHT22;697;51.114;6.542;2022-10-16T11:44:19;28.30;43.10
1405;DHT22;697;51.114;6.542;2022-10-16T11:46:51;28.20;43.30
1405;DHT22;697;51.114;6.542;2022-10-16T11:49:21;28.30;43.60
1405;DHT22;697;51.114;6.542;2022-10-16T11:51:56;28.90;42.50
1405;DHT22;697;51.114;6.542;2022-10-16T11:54:33;29.30;41.50
1405;DHT22;697;51.114;6.542;2022-10-16T11:57:08;29.60;38.70
1405;DHT22;697;51.114;6.542;2022-10-16T11:59:41;29.90;39.60
1405;DHT22;697;51.114;6.542;2022-10-16T12:02:32;30.40;39.00
1405;DHT22;697;51.114;6.542;2022-10-16T12:05:12;30.50;37.00
1405;DHT22;697;51.114;6.542;2022-10-16T12:07:47;30.00;37.70
1405;DHT22;697;51.114;6.542;2022-10-16T12:10:23;30.10;38.30
1405;DHT22;697;51.114;6.542;2022-10-16T12:12:50;30.40;37.10
1405;DHT22;697;51.114;6.542;2022-10-16T12:15:23;30.60;37.80
1405;DHT22;697;51.114;6.542;2022-10-16T12:17:50;30.80;37.30
1405;DHT22;697;51.114;6.542;2022-10-16T12:20:26;31.00;36.30
1405;DHT22;697;51.114;6.542;2022-10-16T12:22:57;31.00;35.80
1405;DHT22;697;51.114;6.542;2022-10-16T12:25:28;31.20;35.80
1405;DHT22;697;51.114;6.542;2022-10-16T12:27:57;31.60;34.00
1405;DHT22;697;51.114;6.542;2022-10-16T12:30:26;31.90;33.80
1405;DHT22;697;51.114;6.542;2022-10-16T12:32:54;32.40;34.00
1405;DHT22;697;51.114;6.542;2022-10-16T12:35:24;32.70;32.40
1405;DHT22;697;51.114;6.542;2022-10-16T12:37:51;32.70;32.90
1405;DHT22;697;51.114;6.542;2022-10-16T12:40:30;32.50;33.50
1405;DHT22;697;51.114;6.542;2022-10-16T12:42:59;32.10;33.60
1405;DHT22;697;51.114;6.542;2022-10-16T12:45:28;31.70;33.30
1405;DHT22;697;51.114;6.542;2022-10-16T12:47:56;31.20;34.80
1405;DHT22;697;51.114;6.542;2022-10-16T12:50:31;30.70;36.00
1405;DHT22;697;51.114;6.542;2022-10-16T12:53:00;30.10;35.90
1405;DHT22;697;51.114;6.542;2022-10-16T12:55:35;29.60;36.80
1405;DHT22;697;51.114;6.542;2022-10-16T12:58:19;29.20;38.20
1405;DHT22;697;51.114;6.542;2022-10-16T13:00:53;29.10;38.40
1405;DHT22;697;51.114;6.542;2022-10-16T13:03:53;29.60;37.50
1405;DHT22;697;51.114;6.542;2022-10-16T13:06:33;30.20;36.70
1405;DHT22;697;51.114;6.542;2022-10-16T13:09:35;30.70;36.60
1405;DHT22;697;51.114;6.542;2022-10-16T13:12:18;31.50;35.10
1405;DHT22;697;51.114;6.542;2022-10-16T13:15:05;32.10;33.30
1405;DHT22;697;51.114;6.542;2022-10-16T13:17:42;31.90;32.80
1405;DHT22;697;51.114;6.542;2022-10-16T13:20:18;32.10;33.70
1405;DHT22;697;51.114;6.542;2022-10-16T13:22:54;32.80;33.30
1405;DHT22;697;51.114;6.542;2022-10-16T13:25:30;33.60;31.10
1405;DHT22;697;51.114;6.542;2022-10-16T13:28:02;34.40;30.60
1405;DHT22;697;51.114;6.542;2022-10-16T13:30:31;35.10;30.00
1405;DHT22;697;51.114;6.542;2022-10-16T13:33:01;35.60;29.00
1405;DHT22;697;51.114;6.542;2022-10-16T13:35:30;35.90;28.10
1405;DHT22;697;51.114;6.542;2022-10-16T13:38:11;36.10;27.90
1405;DHT22;697;51.114;6.542;2022-10-16T13:40:52;35.90;26.90
1405;DHT22;697;51.114;6.542;2022-10-16T13:43:23;35.40;27.90
1405;DHT22;697;51.114;6.542;2022-10-16T13:45:56;34.90;28.10
1405;DHT22;697;51.114;6.542;2022-10-16T13:48:23;34.70;28.70
1405;DHT22;697;51.114;6.542;2022-10-16T13:51:00;34.10;29.40
1405;DHT22;697;51.114;6.542;2022-10-16T13:53:31;33.30;30.70
1405;DHT22;697;51.114;6.542;2022-10-16T13:55:58;32.40;31.70
1405;DHT22;697;51.114;6.542;2022-10-16T13:58:27;31.70;32.60
1405;DHT22;697;51.114;6.542;2022-10-16T14:00:56;31.00;33.60
1405;DHT22;697;51.114;6.542;2022-10-16T14:03:23;30.40;35.30
1405;DHT22;697;51.114;6.542;2022-10-16T14:05:52;29.70;36.70
1405;DHT22;697;51.114;6.542;2022-10-16T14:08:20;29.30;37.60
1405;DHT22;697;51.114;6.542;2022-10-16T14:10:49;28.90;37.60
1405;DHT22;697;51.114;6.542;2022-10-16T14:13:18;28.70;38.20
1405;DHT22;697;51.114;6.542;2022-10-16T14:15:51;28.50;38.90
1405;DHT22;697;51.114;6.542;2022-10-16T14:18:21;28.30;39.80
1405;DHT22;697;51.114;6.542;2022-10-16T14:20:49;28.20;39.80
1405;DHT22;697;51.114;6.542;2022-10-16T14:23:22;28.10;40.10
1405;DHT22;697;51.114;6.542;2022-10-16T14:25:51;27.90;40.50
1405;DHT22;697;51.114;6.542;2022-10-16T14:28:20;27.50;41.60
1405;DHT22;697;51.114;6.542;2022-10-16T14:30:53;27.20;43.30
1405;DHT22;697;51.114;6.542;2022-10-16T14:33:22;26.90;44.20
1405;DHT22;697;51.114;6.542;2022-10-16T14:36:01;26.60;44.70
1405;DHT22;697;51.114;6.542;2022-10-16T14:38:29;26.30;45.30
1405;DHT22;697;51.114;6.542;2022-10-16T14:40:58;26.10;45.10
1405;DHT22;697;51.114;6.542;2022-10-16T14:43:31;25.80;44.70
1405;DHT22;697;51.114;6.542;2022-10-16T14:46:02;25.60;45.40
1405;DHT22;697;51.114;6.542;2022-10-16T14:48:30;25.40;46.90
1405;DHT22;697;51.114;6.542;2022-10-16T14:50:57;25.10;47.00
1405;DHT22;697;51.114;6.542;2022-10-16T14:53:23;24.80;47.30
1405;DHT22;697;51.114;6.542;2022-10-16T14:55:50;24.60;48.50
1405;DHT22;697;51.114;6.542;2022-10-16T14:58:19;24.50;49.80
1405;DHT22;697;51.114;6.542;2022-10-16T15:00:47;24.30;50.80
1405;DHT22;697;51.114;6.542;2022-10-16T15:03:16;24.20;51.70
1405;DHT22;697;51.114;6.542;2022-10-16T15:05:43;24.10;52.90
1405;DHT22;697;51.114;6.542;2022-10-16T15:08:09;23.90;52.80
1405;DHT22;697;51.114;6.542;2022-10-16T15:10:39;23.80;53.50
1405;DHT22;697;51.114;6.542;2022-10-16T15:13:08;23.70;54.30
1405;DHT22;697;51.114;6.542;2022-10-16T15:15:36;23.60;54.90
1405;DHT22;697;51.114;6.542;2022-10-16T15:18:04;23.50;55.60
1405;DHT22;697;51.114;6.542;2022-10-16T15:20:34;23.40;56.30
1405;DHT22;697;51.114;6.542;2022-10-16T15:23:01;23.30;57.10
1405;DHT22;697;51.114;6.542;2022-10-16T15:25:35;23.20;57.70
1405;DHT22;697;51.114;6.542;2022-10-16T15:28:03;23.20;58.30
1405;DHT22;697;51.114;6.542;2022-10-16T15:30:30;23.10;58.80
1405;DHT22;697;51.114;6.542;2022-10-16T15:32:57;23.00;59.30
1405;DHT22;697;51.114;6.542;2022-10-16T15:35:23;22.90;59.80
1405;DHT22;697;51.114;6.542;2022-10-16T15:37:52;22.80;60.50
1405;DHT22;697;51.114;6.542;2022-10-16T15:40:20;22.70;61.40
1405;DHT22;697;51.114;6.542;2022-10-16T15:42:48;22.60;62.10
1405;DHT22;697;51.114;6.542;2022-10-16T15:45:16;22.50;62.70
1405;DHT22;697;51.114;6.542;2022-10-16T15:47:44;22.40;63.40
1405;DHT22;697;51.114;6.542;2022-10-16T15:50:12;22.30;64.00
1405;DHT22;697;51.114;6.542;2022-10-16T15:52:39;22.20;64.60
1405;DHT22;697;51.114;6.542;2022-10-16T15:55:09;22.10;65.30
1405;DHT22;697;51.114;6.542;2022-10-16T15:57:36;22.10;66.10
1405;DHT22;697;51.114;6.542;2022-10-16T16:00:07;22.00;66.60
1405;DHT22;697;51.114;6.542;2022-10-16T16:02:34;22.00;67.40
1405;DHT22;697;51.114;6.542;2022-10-16T16:05:01;21.90;67.90
1405;DHT22;697;51.114;6.542;2022-10-16T16:07:29;21.80;68.20
1405;DHT22;697;51.114;6.542;2022-10-16T16:09:58;21.70;68.60
1405;DHT22;697;51.114;6.542;2022-10-16T16:12:27;21.70;69.50
1405;DHT22;697;51.114;6.542;2022-10-16T16:14:54;21.60;70.00
1405;DHT22;697;51.114;6.542;2022-10-16T16:17:21;21.60;70.70
1405;DHT22;697;51.114;6.542;2022-10-16T16:19:47;21.50;71.10
1405;DHT22;697;51.114;6.542;2022-10-16T16:22:14;21.50;72.30
1405;DHT22;697;51.114;6.542;2022-10-16T16:24:41;21.40;71.80
1405;DHT22;697;51.114;6.542;2022-10-16T16:27:10;21.30;72.30
1405;DHT22;697;51.114;6.542;2022-10-16T16:29:38;21.30;73.70
1405;DHT22;697;51.114;6.542;2022-10-16T16:32:04;21.20;73.40
1405;DHT22;697;51.114;6.542;2022-10-16T16:34:31;21.20;73.80
1405;DHT22;697;51.114;6.542;2022-10-16T16:36:58;21.10;74.50
1405;DHT22;697;51.114;6.542;2022-10-16T16:39:25;21.10;74.70
1405;DHT22;697;51.114;6.542;2022-10-16T16:41:51;21.00;74.90
1405;DHT22;697;51.114;6.542;2022-10-16T16:44:18;20.90;75.20
1405;DHT22;697;51.114;6.542;2022-10-16T16:46:46;20.90;75.60
1405;DHT22;697;51.114;6.542;2022-10-16T16:49:13;20.90;76.00
1405;DHT22;697;51.114;6.542;2022-10-16T16:51:41;20.80;76.50
1405;DHT22;697;51.114;6.542;2022-10-16T16:54:09;20.80;76.90
1405;DHT22;697;51.114;6.542;2022-10-16T16:56:38;20.70;77.30
1405;DHT22;697;51.114;6.542;2022-10-16T16:59:04;20.70;77.80
1405;DHT22;697;51.114;6.542;2022-10-16T17:01:31;20.60;78.20
1405;DHT22;697;51.114;6.542;2022-10-16T17:03:59;20.60;78.70
1405;DHT22;697;51.114;6.542;2022-10-16T17:06:28;20.50;79.00
1405;DHT22;697;51.114;6.542;2022-10-16T17:08:56;20.50;79.10
1405;DHT22;697;51.114;6.542;2022-10-16T17:11:25;20.40;79.20
1405;DHT22;697;51.114;6.542;2022-10-16T17:13:53;20.40;79.50
1405;DHT22;697;51.114;6.542;2022-10-16T17:16:20;20.40;80.00
1405;DHT22;697;51.114;6.542;2022-10-16T17:18:47;20.30;80.30
1405;DHT22;697;51.114;6.542;2022-10-16T17:21:15;20.30;80.80
1405;DHT22;697;51.114;6.542;2022-10-16T17:23:42;20.30;81.20
1405;DHT22;697;51.114;6.542;2022-10-16T17:26:12;20.20;81.30
1405;DHT22;697;51.114;6.542;2022-10-16T17:28:39;20.20;81.60
1405;DHT22;697;51.114;6.542;2022-10-16T17:31:08;20.10;81.80
1405;DHT22;697;51.114;6.542;2022-10-16T17:33:35;20.10;82.30